Ponderosa, North Carolina
Current Conditions -  °F | °C
As of 4:58 PM on Monday 20 Oct 2014 (Local Time) from KPOB Reporting Station
Clear Clear  
Wind Chill: 73°   Ceiling: Unl
Heat Index: 73°   Visibility: 10mi
Dew Point: 48°   Wind: 12mph
Humidity: 41%   Direction: 230°SW
Pressure: 29.98"   Gusts: NA
Location:  35.0916°N, 79.0106°W
Report Text: KPOB 202058Z AUTO 23010KT 10SM CLR 23/09 A2998 RMK AO2 SLP155 T02280089 57022
Loading
Personal Weather Stations






























Interactive Weather Map
Tropical Storm Tracking
New forecast layout! Learn more

10-Day Weather Forecast

Advertisements
Track Severe Weather on mobile